SAS7469 ENKB-GCLP
Flight info
| Callsign | SAS7469 |
|---|---|
| Flight time | 5h 36m |
| Altitude | 34000 |
| Route | OGDIT DCT ALOTI DCT BUZDE/N0441F360 P5 DIGSU N866 GASGU/N0438F350 N866 SAM M195 LORKU DCT BALDA/N0434F370 DCT ABUPI DCT BEXAL DCT SAMAR |
| Aircraft | A320/M-SDE3FGHIRWY/LB1 |
Departure
| Time | 2026-04-25 13:39 |
|---|---|
| Airport | Kristiansund Airport, Kvernberget (ENKB) |
Arrival
| Time | 2026-04-25 19:15 |
|---|---|
| Airport | Gran Canaria Airport (GCLP) |
| Time | Latitude | Longitude | Altitude | Speed | Heading |
|---|---|---|---|---|---|
| 2026-04-25 13:22 | 63.11357 | 7.82697 | 212 ft | 0 kts | 341° |
| 2026-04-25 13:32 | 63.11342 | 7.82717 | 215 ft | 4 kts | 300° |
| 2026-04-25 13:32 | 63.11338 | 7.82733 | 219 ft | 0 kts | 298° |
| 2026-04-25 13:33 | 63.11338 | 7.82732 | 212 ft | 0 kts | 298° |
| 2026-04-25 13:34 | 63.11338 | 7.82726 | 213 ft | 1 kts | 284° |
| 2026-04-25 13:34 | 63.11335 | 7.82713 | 213 ft | 1 kts | 246° |
| 2026-04-25 13:34 | 63.11330 | 7.82709 | 212 ft | 1 kts | 208° |
| 2026-04-25 13:34 | 63.11314 | 7.82704 | 211 ft | 4 kts | 183° |
| 2026-04-25 13:35 | 63.11281 | 7.82724 | 215 ft | 6 kts | 161° |
| 2026-04-25 13:35 | 63.11238 | 7.82777 | 214 ft | 8 kts | 122° |
| 2026-04-25 13:35 | 63.11251 | 7.82904 | 214 ft | 10 kts | 70° |
| 2026-04-25 13:35 | 63.11277 | 7.83062 | 213 ft | 12 kts | 70° |
| 2026-04-25 13:36 | 63.11306 | 7.83251 | 214 ft | 14 kts | 72° |
| 2026-04-25 13:36 | 63.11338 | 7.83470 | 214 ft | 16 kts | 72° |
| 2026-04-25 13:36 | 63.11376 | 7.83717 | 217 ft | 18 kts | 71° |
| 2026-04-25 13:36 | 63.11421 | 7.84007 | 210 ft | 22 kts | 71° |
| 2026-04-25 13:37 | 63.11476 | 7.84357 | 211 ft | 26 kts | 71° |
| 2026-04-25 13:37 | 63.11535 | 7.84749 | 201 ft | 26 kts | 71° |
| 2026-04-25 13:37 | 63.11577 | 7.85023 | 203 ft | 13 kts | 71° |
| 2026-04-25 13:37 | 63.11603 | 7.85130 | 195 ft | 7 kts | 331° |
| 2026-04-25 13:38 | 63.11588 | 7.85072 | 191 ft | 4 kts | 224° |
| 2026-04-25 13:38 | 63.11577 | 7.85024 | 196 ft | 1 kts | 249° |
| 2026-04-25 13:38 | 63.11574 | 7.85003 | 203 ft | 15 kts | 250° |
| 2026-04-25 13:38 | 63.11458 | 7.84235 | 213 ft | 86 kts | 251° |
| 2026-04-25 13:39 | 63.11206 | 7.82597 | 211 ft | 137 kts | 251° |
| 2026-04-25 13:39 | 63.10861 | 7.80318 | 348 ft | 165 kts | 255° |
| 2026-04-25 13:39 | 63.10509 | 7.77961 | 1030 ft | 160 kts | 257° |
| 2026-04-25 13:39 | 63.10145 | 7.75658 | 1688 ft | 157 kts | 259° |
| 2026-04-25 13:40 | 63.09791 | 7.73275 | 1899 ft | 171 kts | 262° |
| 2026-04-25 13:40 | 63.09421 | 7.70667 | 2134 ft | 188 kts | 262° |
| 2026-04-25 13:40 | 63.08982 | 7.67743 | 2267 ft | 213 kts | 258° |
| 2026-04-25 13:40 | 63.08474 | 7.64457 | 2498 ft | 239 kts | 258° |
| 2026-04-25 13:41 | 63.07921 | 7.60838 | 2932 ft | 259 kts | 257° |
| 2026-04-25 13:41 | 63.07328 | 7.57049 | 3811 ft | 258 kts | 256° |
| 2026-04-25 13:41 | 63.06526 | 7.53469 | 4677 ft | 268 kts | 238° |
| 2026-04-25 13:41 | 63.05121 | 7.50676 | 5460 ft | 280 kts | 214° |
| 2026-04-25 13:42 | 63.03256 | 7.49273 | 6254 ft | 290 kts | 188° |
| 2026-04-25 13:42 | 63.01215 | 7.49529 | 6937 ft | 299 kts | 169° |
| 2026-04-25 13:42 | 62.99177 | 7.50312 | 7809 ft | 296 kts | 174° |
| 2026-04-25 13:42 | 62.97118 | 7.50837 | 8547 ft | 299 kts | 176° |
| 2026-04-25 13:43 | 62.95035 | 7.51253 | 9235 ft | 303 kts | 177° |
| 2026-04-25 13:43 | 62.92927 | 7.51632 | 9946 ft | 306 kts | 177° |
| 2026-04-25 13:43 | 62.90788 | 7.52043 | 10433 ft | 317 kts | 176° |
| 2026-04-25 13:43 | 62.88518 | 7.52514 | 10569 ft | 338 kts | 176° |
| 2026-04-25 13:44 | 62.86125 | 7.53043 | 10921 ft | 351 kts | 175° |
| 2026-04-25 13:44 | 62.83676 | 7.53609 | 11439 ft | 357 kts | 175° |
| 2026-04-25 13:44 | 62.81220 | 7.54093 | 12001 ft | 361 kts | 180° |
| 2026-04-25 13:44 | 62.78711 | 7.53751 | 12538 ft | 363 kts | 192° |
| 2026-04-25 13:45 | 62.76262 | 7.52370 | 13093 ft | 364 kts | 204° |
| 2026-04-25 13:45 | 62.73940 | 7.50146 | 13660 ft | 367 kts | 209° |
| 2026-04-25 13:45 | 62.71607 | 7.47787 | 14234 ft | 372 kts | 209° |
| 2026-04-25 13:45 | 62.69243 | 7.45410 | 14700 ft | 377 kts | 209° |
| 2026-04-25 13:46 | 62.66847 | 7.43006 | 15164 ft | 382 kts | 210° |
| 2026-04-25 13:46 | 62.64419 | 7.40573 | 15636 ft | 387 kts | 210° |
| 2026-04-25 13:46 | 62.61956 | 7.38108 | 16027 ft | 393 kts | 210° |
| 2026-04-25 13:46 | 62.59446 | 7.35598 | 16331 ft | 401 kts | 211° |
| 2026-04-25 13:47 | 62.56888 | 7.33043 | 16751 ft | 408 kts | 211° |
| 2026-04-25 13:47 | 62.54288 | 7.30454 | 17215 ft | 414 kts | 211° |
| 2026-04-25 13:47 | 62.51658 | 7.27848 | 17690 ft | 419 kts | 211° |
| 2026-04-25 13:47 | 62.48984 | 7.25207 | 18140 ft | 425 kts | 211° |
| 2026-04-25 13:48 | 62.46280 | 7.22547 | 18565 ft | 430 kts | 212° |
| 2026-04-25 13:48 | 62.43541 | 7.19860 | 18958 ft | 435 kts | 212° |
| 2026-04-25 13:48 | 62.40769 | 7.17141 | 19353 ft | 440 kts | 212° |
| 2026-04-25 13:48 | 62.37965 | 7.14388 | 19653 ft | 444 kts | 212° |
| 2026-04-25 13:49 | 62.35140 | 7.11613 | 20079 ft | 449 kts | 213° |
| 2026-04-25 13:49 | 62.32277 | 7.08807 | 20408 ft | 456 kts | 213° |
| 2026-04-25 13:49 | 62.29368 | 7.05970 | 20752 ft | 462 kts | 213° |
| 2026-04-25 13:49 | 62.26423 | 7.03110 | 21133 ft | 467 kts | 213° |
| 2026-04-25 13:50 | 62.23444 | 7.00223 | 21526 ft | 472 kts | 213° |
| 2026-04-25 13:50 | 62.20436 | 6.97316 | 21886 ft | 477 kts | 214° |
| 2026-04-25 13:50 | 62.17399 | 6.94392 | 22265 ft | 481 kts | 214° |
| 2026-04-25 13:50 | 62.14329 | 6.91434 | 22698 ft | 486 kts | 214° |
| 2026-04-25 13:51 | 62.11232 | 6.88452 | 23053 ft | 490 kts | 213° |
| 2026-04-25 13:51 | 62.08102 | 6.85443 | 23427 ft | 496 kts | 214° |
| 2026-04-25 13:51 | 62.04941 | 6.82414 | 23810 ft | 501 kts | 214° |
| 2026-04-25 13:51 | 62.01747 | 6.79363 | 24170 ft | 505 kts | 214° |
| 2026-04-25 13:52 | 61.98535 | 6.76311 | 24561 ft | 507 kts | 214° |
| 2026-04-25 13:52 | 61.95306 | 6.73250 | 24901 ft | 510 kts | 214° |
| 2026-04-25 13:52 | 61.92060 | 6.70175 | 25212 ft | 512 kts | 214° |
| 2026-04-25 13:52 | 61.88806 | 6.67096 | 25506 ft | 513 kts | 214° |
| 2026-04-25 13:53 | 61.85537 | 6.64006 | 25641 ft | 515 kts | 214° |
| 2026-04-25 13:53 | 61.82249 | 6.60935 | 25967 ft | 519 kts | 213° |
| 2026-04-25 13:53 | 61.78918 | 6.57947 | 26329 ft | 522 kts | 212° |
| 2026-04-25 13:53 | 61.75543 | 6.55018 | 26623 ft | 525 kts | 211° |
| 2026-04-25 13:54 | 61.72155 | 6.52140 | 26952 ft | 526 kts | 211° |
| 2026-04-25 13:54 | 61.68757 | 6.49275 | 27275 ft | 527 kts | 211° |
| 2026-04-25 13:54 | 61.65347 | 6.46391 | 27582 ft | 529 kts | 211° |
| 2026-04-25 13:54 | 61.61931 | 6.43485 | 27902 ft | 531 kts | 211° |
| 2026-04-25 13:55 | 61.58509 | 6.40552 | 28212 ft | 532 kts | 211° |
| 2026-04-25 13:55 | 61.55076 | 6.37592 | 28514 ft | 534 kts | 211° |
| 2026-04-25 13:55 | 61.51688 | 6.34671 | 28859 ft | 534 kts | 211° |
| 2026-04-25 13:55 | 61.48258 | 6.31733 | 29349 ft | 532 kts | 211° |
| 2026-04-25 13:56 | 61.44826 | 6.28820 | 29836 ft | 531 kts | 211° |
| 2026-04-25 13:56 | 61.41405 | 6.25937 | 30251 ft | 530 kts | 211° |
| 2026-04-25 13:56 | 61.37985 | 6.23068 | 30581 ft | 529 kts | 211° |
| 2026-04-25 13:56 | 61.34582 | 6.20208 | 30947 ft | 527 kts | 211° |
| 2026-04-25 13:57 | 61.31194 | 6.17356 | 31406 ft | 524 kts | 211° |
| 2026-04-25 13:57 | 61.28916 | 6.15439 | 31713 ft | 522 kts | 211° |
| 2026-04-25 13:57 | 61.24473 | 6.11708 | 32288 ft | 518 kts | 211° |
| 2026-04-25 13:57 | 61.21137 | 6.08919 | 32720 ft | 515 kts | 212° |
| 2026-04-25 13:58 | 61.17820 | 6.06153 | 33092 ft | 513 kts | 211° |
| 2026-04-25 13:58 | 61.14510 | 6.03404 | 33531 ft | 511 kts | 211° |
| 2026-04-25 13:58 | 61.11217 | 6.00680 | 33906 ft | 510 kts | 211° |
| 2026-04-25 13:59 | 61.04617 | 5.95208 | 34032 ft | 515 kts | 211° |
| 2026-04-25 13:59 | 60.97953 | 5.89691 | 34027 ft | 517 kts | 211° |
| 2026-04-25 14:00 | 60.93485 | 5.86025 | 34025 ft | 517 kts | 211° |
| 2026-04-25 14:00 | 60.84595 | 5.78775 | 34018 ft | 515 kts | 211° |
| 2026-04-25 14:01 | 60.77929 | 5.73365 | 34032 ft | 515 kts | 211° |
| 2026-04-25 14:01 | 60.71252 | 5.67967 | 34054 ft | 517 kts | 211° |
| 2026-04-25 14:02 | 60.64568 | 5.62577 | 34051 ft | 516 kts | 211° |
| 2026-04-25 14:02 | 60.57896 | 5.57217 | 34020 ft | 516 kts | 211° |
| 2026-04-25 14:03 | 60.51210 | 5.51885 | 34041 ft | 516 kts | 211° |
| 2026-04-25 14:03 | 60.44521 | 5.46566 | 34058 ft | 516 kts | 211° |
| 2026-04-25 14:04 | 60.37837 | 5.41273 | 34065 ft | 516 kts | 211° |
| 2026-04-25 14:04 | 60.31140 | 5.36008 | 33969 ft | 515 kts | 210° |
| 2026-04-25 14:05 | 60.24461 | 5.30786 | 34074 ft | 516 kts | 210° |
| 2026-04-25 14:05 | 60.17775 | 5.25577 | 34080 ft | 515 kts | 210° |
| 2026-04-25 14:06 | 60.11105 | 5.20380 | 34083 ft | 514 kts | 210° |
| 2026-04-25 14:06 | 60.04444 | 5.15205 | 34053 ft | 513 kts | 210° |
| 2026-04-25 14:07 | 59.97791 | 5.10078 | 34082 ft | 512 kts | 210° |
| 2026-04-25 14:07 | 59.91147 | 5.04972 | 34096 ft | 512 kts | 209° |
| 2026-04-25 14:08 | 59.84495 | 4.99901 | 34125 ft | 511 kts | 209° |
| 2026-04-25 14:08 | 59.77850 | 4.94869 | 34094 ft | 511 kts | 209° |
| 2026-04-25 14:09 | 59.71260 | 4.89874 | 34110 ft | 510 kts | 209° |
| 2026-04-25 14:09 | 59.64633 | 4.84874 | 34114 ft | 510 kts | 209° |
| 2026-04-25 14:10 | 59.58009 | 4.79906 | 34116 ft | 509 kts | 209° |
| 2026-04-25 14:10 | 59.51385 | 4.74948 | 34075 ft | 509 kts | 209° |
| 2026-04-25 14:11 | 59.44770 | 4.70012 | 34104 ft | 508 kts | 208° |
| 2026-04-25 14:11 | 59.38160 | 4.65117 | 34137 ft | 508 kts | 208° |
| 2026-04-25 14:12 | 59.31556 | 4.60238 | 34135 ft | 507 kts | 208° |
| 2026-04-25 14:12 | 59.24954 | 4.55381 | 34138 ft | 507 kts | 208° |
| 2026-04-25 14:13 | 59.18354 | 4.50553 | 34120 ft | 506 kts | 208° |
| 2026-04-25 14:13 | 59.11768 | 4.45762 | 34120 ft | 503 kts | 207° |
| 2026-04-25 14:14 | 59.05210 | 4.40998 | 34138 ft | 503 kts | 207° |
| 2026-04-25 14:14 | 58.98668 | 4.36250 | 34144 ft | 502 kts | 207° |
| 2026-04-25 14:15 | 58.93235 | 4.32313 | 34118 ft | 501 kts | 207° |
| 2026-04-25 14:15 | 58.86710 | 4.27633 | 34152 ft | 500 kts | 207° |
| 2026-04-25 14:16 | 58.80193 | 4.22980 | 34168 ft | 499 kts | 207° |
| 2026-04-25 14:16 | 58.73688 | 4.18333 | 34161 ft | 498 kts | 207° |
| 2026-04-25 14:17 | 58.67185 | 4.13721 | 34158 ft | 498 kts | 207° |
| 2026-04-25 14:17 | 58.60679 | 4.09136 | 34160 ft | 498 kts | 207° |
| 2026-04-25 14:18 | 58.54177 | 4.04562 | 34167 ft | 498 kts | 207° |
| 2026-04-25 14:18 | 58.47674 | 3.99996 | 34159 ft | 498 kts | 207° |
| 2026-04-25 14:19 | 58.41168 | 3.95455 | 34136 ft | 498 kts | 206° |
| 2026-04-25 14:19 | 58.34671 | 3.90933 | 34164 ft | 497 kts | 206° |
| 2026-04-25 14:20 | 58.28179 | 3.86439 | 34178 ft | 496 kts | 206° |
| 2026-04-25 14:20 | 58.21695 | 3.81960 | 34181 ft | 496 kts | 206° |
| 2026-04-25 14:21 | 58.15210 | 3.77511 | 34184 ft | 496 kts | 206° |
| 2026-04-25 14:21 | 58.08733 | 3.73079 | 34175 ft | 495 kts | 206° |
| 2026-04-25 14:22 | 58.02266 | 3.68663 | 34197 ft | 494 kts | 206° |
| 2026-04-25 14:22 | 57.95809 | 3.64271 | 34180 ft | 492 kts | 205° |
| 2026-04-25 14:23 | 57.89363 | 3.59937 | 34205 ft | 492 kts | 204° |
| 2026-04-25 14:23 | 57.82866 | 3.55935 | 34196 ft | 491 kts | 202° |
| 2026-04-25 14:24 | 57.76347 | 3.52170 | 34203 ft | 490 kts | 202° |
| 2026-04-25 14:24 | 57.69891 | 3.48415 | 34206 ft | 488 kts | 202° |
| 2026-04-25 14:25 | 57.63424 | 3.44599 | 34207 ft | 487 kts | 202° |
| 2026-04-25 14:25 | 57.56968 | 3.40768 | 34191 ft | 486 kts | 202° |
| 2026-04-25 14:26 | 57.50529 | 3.36968 | 34206 ft | 485 kts | 202° |
| 2026-04-25 14:26 | 57.44094 | 3.33217 | 34216 ft | 484 kts | 202° |
| 2026-04-25 14:27 | 57.37666 | 3.29476 | 34213 ft | 484 kts | 202° |
| 2026-04-25 14:27 | 57.31247 | 3.25756 | 34190 ft | 483 kts | 201° |
| 2026-04-25 14:28 | 57.24844 | 3.22041 | 34210 ft | 482 kts | 201° |
| 2026-04-25 14:28 | 57.18454 | 3.18341 | 34211 ft | 481 kts | 201° |
| 2026-04-25 14:29 | 57.12069 | 3.14673 | 34218 ft | 480 kts | 201° |
| 2026-04-25 14:29 | 57.05689 | 3.11028 | 34194 ft | 480 kts | 201° |
| 2026-04-25 14:30 | 56.99317 | 3.07385 | 34210 ft | 479 kts | 201° |
| 2026-04-25 14:30 | 56.89769 | 3.01978 | 34202 ft | 479 kts | 201° |
| 2026-04-25 14:31 | 56.83406 | 2.98385 | 34205 ft | 478 kts | 201° |
| 2026-04-25 14:31 | 56.77048 | 2.94803 | 34186 ft | 478 kts | 200° |
| 2026-04-25 14:32 | 56.70698 | 2.91242 | 34197 ft | 477 kts | 200° |
| 2026-04-25 14:32 | 56.64360 | 2.87703 | 34202 ft | 476 kts | 200° |
| 2026-04-25 14:33 | 56.58035 | 2.84172 | 34220 ft | 475 kts | 200° |
| 2026-04-25 14:33 | 56.51724 | 2.80672 | 34209 ft | 474 kts | 199° |
| 2026-04-25 14:34 | 56.45429 | 2.77188 | 34225 ft | 472 kts | 199° |
| 2026-04-25 14:34 | 56.39157 | 2.73709 | 34227 ft | 471 kts | 199° |
| 2026-04-25 14:35 | 56.32889 | 2.70250 | 34231 ft | 470 kts | 199° |
| 2026-04-25 14:35 | 56.26626 | 2.66827 | 34225 ft | 470 kts | 199° |
| 2026-04-25 14:36 | 56.20372 | 2.63426 | 34231 ft | 469 kts | 199° |
| 2026-04-25 14:36 | 56.14130 | 2.60032 | 34233 ft | 468 kts | 199° |
| 2026-04-25 14:37 | 56.07939 | 2.56666 | 34236 ft | 468 kts | 199° |
| 2026-04-25 14:37 | 56.01714 | 2.53293 | 34244 ft | 468 kts | 199° |
| 2026-04-25 14:38 | 55.95481 | 2.49943 | 34241 ft | 468 kts | 199° |
| 2026-04-25 14:38 | 55.89252 | 2.46597 | 34246 ft | 468 kts | 199° |
| 2026-04-25 14:39 | 55.83020 | 2.43255 | 34248 ft | 468 kts | 199° |
| 2026-04-25 14:39 | 55.76780 | 2.39936 | 34251 ft | 468 kts | 198° |
| 2026-04-25 14:40 | 55.70548 | 2.36622 | 34245 ft | 467 kts | 198° |
| 2026-04-25 14:40 | 55.64321 | 2.33328 | 34253 ft | 467 kts | 198° |
| 2026-04-25 14:41 | 55.58101 | 2.30052 | 34255 ft | 466 kts | 198° |
| 2026-04-25 14:41 | 55.51888 | 2.26781 | 34254 ft | 466 kts | 198° |
| 2026-04-25 14:42 | 55.46730 | 2.24073 | 34253 ft | 465 kts | 198° |
| 2026-04-25 14:42 | 55.39492 | 2.20291 | 34251 ft | 463 kts | 197° |
| 2026-04-25 14:43 | 55.33318 | 2.17076 | 34265 ft | 462 kts | 197° |
| 2026-04-25 14:43 | 55.27163 | 2.13889 | 34267 ft | 461 kts | 197° |
| 2026-04-25 14:44 | 55.21023 | 2.10719 | 34264 ft | 459 kts | 197° |
| 2026-04-25 14:44 | 55.14915 | 2.07552 | 34269 ft | 457 kts | 197° |
| 2026-04-25 14:45 | 55.08825 | 2.04417 | 34270 ft | 455 kts | 197° |
| 2026-04-25 14:45 | 55.02751 | 2.01300 | 34267 ft | 455 kts | 197° |
| 2026-04-25 14:46 | 54.96682 | 1.98210 | 34264 ft | 454 kts | 197° |
| 2026-04-25 14:46 | 54.90623 | 1.95131 | 34269 ft | 453 kts | 197° |
| 2026-04-25 14:47 | 54.86618 | 1.93088 | 34273 ft | 453 kts | 197° |
| 2026-04-25 14:47 | 54.78526 | 1.88983 | 34273 ft | 452 kts | 197° |
| 2026-04-25 14:48 | 54.72485 | 1.85934 | 34253 ft | 452 kts | 198° |
| 2026-04-25 14:48 | 54.66442 | 1.82891 | 34262 ft | 452 kts | 198° |
| 2026-04-25 14:49 | 54.60440 | 1.79877 | 34256 ft | 452 kts | 198° |
| 2026-04-25 14:49 | 54.54398 | 1.76853 | 34259 ft | 452 kts | 198° |
| 2026-04-25 14:50 | 54.48353 | 1.73850 | 34249 ft | 452 kts | 198° |
| 2026-04-25 14:50 | 54.42312 | 1.70847 | 34256 ft | 452 kts | 198° |
| 2026-04-25 14:51 | 54.36272 | 1.67855 | 34257 ft | 452 kts | 198° |
| 2026-04-25 14:51 | 54.30234 | 1.64869 | 34260 ft | 451 kts | 198° |
| 2026-04-25 14:52 | 54.24200 | 1.61883 | 34266 ft | 451 kts | 198° |
| 2026-04-25 14:52 | 54.19186 | 1.59416 | 34260 ft | 451 kts | 198° |
| 2026-04-25 14:53 | 54.12144 | 1.55978 | 34261 ft | 450 kts | 197° |
| 2026-04-25 14:53 | 54.06136 | 1.53062 | 34264 ft | 449 kts | 197° |
| 2026-04-25 14:54 | 54.00137 | 1.50142 | 34265 ft | 448 kts | 197° |
| 2026-04-25 14:54 | 53.94149 | 1.47234 | 34264 ft | 447 kts | 197° |
| 2026-04-25 14:55 | 53.88161 | 1.44336 | 34258 ft | 447 kts | 197° |
| 2026-04-25 14:55 | 53.82186 | 1.41444 | 34261 ft | 446 kts | 197° |
| 2026-04-25 14:56 | 53.76211 | 1.38570 | 34257 ft | 446 kts | 197° |
| 2026-04-25 14:56 | 53.70216 | 1.35850 | 34255 ft | 446 kts | 196° |
| 2026-04-25 14:57 | 53.64216 | 1.33277 | 34263 ft | 444 kts | 195° |
| 2026-04-25 14:57 | 53.58259 | 1.30705 | 34266 ft | 443 kts | 196° |
| 2026-04-25 14:58 | 53.52264 | 1.28084 | 34259 ft | 443 kts | 197° |
| 2026-04-25 14:58 | 53.46307 | 1.25477 | 34253 ft | 442 kts | 196° |
| 2026-04-25 14:59 | 53.40351 | 1.22888 | 34250 ft | 442 kts | 196° |
| 2026-04-25 14:59 | 53.34397 | 1.20303 | 34247 ft | 442 kts | 196° |
| 2026-04-25 15:00 | 53.28436 | 1.17739 | 34269 ft | 443 kts | 196° |
| 2026-04-25 15:00 | 53.25446 | 1.16455 | 34525 ft | 444 kts | 196° |
| 2026-04-25 15:00 | 53.22462 | 1.15174 | 34818 ft | 442 kts | 196° |
| 2026-04-25 15:01 | 53.20490 | 1.14327 | 35033 ft | 441 kts | 196° |
| 2026-04-25 15:01 | 53.17519 | 1.13051 | 35329 ft | 440 kts | 196° |
| 2026-04-25 15:01 | 53.14562 | 1.11778 | 35605 ft | 439 kts | 196° |
| 2026-04-25 15:01 | 53.11608 | 1.10508 | 35868 ft | 438 kts | 196° |
| 2026-04-25 15:02 | 53.08656 | 1.09241 | 36122 ft | 438 kts | 196° |
| 2026-04-25 15:02 | 53.05706 | 1.07983 | 36220 ft | 438 kts | 196° |
| 2026-04-25 15:02 | 52.99808 | 1.05479 | 36218 ft | 437 kts | 196° |
| 2026-04-25 15:03 | 52.93932 | 1.02991 | 36222 ft | 435 kts | 196° |
| 2026-04-25 15:03 | 52.88065 | 1.00512 | 36227 ft | 435 kts | 196° |
| 2026-04-25 15:04 | 52.82189 | 0.98037 | 36223 ft | 436 kts | 196° |
| 2026-04-25 15:04 | 52.76302 | 0.95562 | 36225 ft | 436 kts | 196° |
| 2026-04-25 15:05 | 52.70424 | 0.93078 | 36210 ft | 436 kts | 196° |
| 2026-04-25 15:06 | 52.61596 | 0.89394 | 36209 ft | 436 kts | 196° |
| 2026-04-25 15:06 | 52.55718 | 0.86946 | 36207 ft | 436 kts | 196° |
| 2026-04-25 15:07 | 52.49835 | 0.84493 | 36217 ft | 436 kts | 196° |
| 2026-04-25 15:07 | 52.43959 | 0.82054 | 36221 ft | 435 kts | 196° |
| 2026-04-25 15:08 | 52.38088 | 0.79628 | 36219 ft | 435 kts | 196° |
| 2026-04-25 15:08 | 52.32259 | 0.77200 | 36219 ft | 435 kts | 197° |
| 2026-04-25 15:09 | 52.26399 | 0.74519 | 36212 ft | 434 kts | 198° |
| 2026-04-25 15:09 | 52.17734 | 0.70441 | 36207 ft | 434 kts | 198° |
| 2026-04-25 15:10 | 52.11922 | 0.67773 | 36209 ft | 434 kts | 198° |
| 2026-04-25 15:11 | 52.03460 | 0.62864 | 36205 ft | 428 kts | 214° |
| 2026-04-25 15:11 | 51.98986 | 0.56639 | 36208 ft | 423 kts | 232° |
| 2026-04-25 15:12 | 51.93450 | 0.45510 | 36211 ft | 423 kts | 232° |
| 2026-04-25 15:12 | 51.90361 | 0.39364 | 36213 ft | 423 kts | 232° |
| 2026-04-25 15:13 | 51.84154 | 0.27022 | 36216 ft | 424 kts | 232° |
| 2026-04-25 15:14 | 51.80429 | 0.19638 | 36207 ft | 424 kts | 232° |
| 2026-04-25 15:14 | 51.76699 | 0.12269 | 36215 ft | 423 kts | 232° |
| 2026-04-25 15:15 | 51.72970 | 0.04916 | 36217 ft | 423 kts | 232° |
| 2026-04-25 15:15 | 51.69233 | -0.02418 | 36242 ft | 423 kts | 232° |
| 2026-04-25 15:16 | 51.65497 | -0.09730 | 36253 ft | 422 kts | 232° |
| 2026-04-25 15:16 | 51.59897 | -0.20677 | 36256 ft | 422 kts | 232° |
| 2026-04-25 15:17 | 51.54295 | -0.31582 | 36203 ft | 421 kts | 232° |
| 2026-04-25 15:18 | 51.50549 | -0.38822 | 36198 ft | 421 kts | 232° |
| 2026-04-25 15:18 | 51.44935 | -0.49668 | 36199 ft | 421 kts | 232° |
| 2026-04-25 15:19 | 51.41818 | -0.55672 | 36199 ft | 421 kts | 232° |
| 2026-04-25 15:19 | 51.37452 | -0.64046 | 36203 ft | 421 kts | 231° |
| 2026-04-25 15:20 | 51.33690 | -0.71238 | 36209 ft | 421 kts | 231° |
| 2026-04-25 15:20 | 51.29930 | -0.78425 | 36194 ft | 421 kts | 232° |
| 2026-04-25 15:21 | 51.26163 | -0.85597 | 36198 ft | 421 kts | 231° |
| 2026-04-25 15:21 | 51.22384 | -0.92742 | 36200 ft | 421 kts | 231° |
| 2026-04-25 15:22 | 51.18368 | -0.99558 | 36203 ft | 422 kts | 226° |
| 2026-04-25 15:22 | 51.14146 | -1.06047 | 36206 ft | 422 kts | 225° |
| 2026-04-25 15:23 | 51.09918 | -1.12526 | 36207 ft | 422 kts | 225° |
| 2026-04-25 15:23 | 51.05691 | -1.18989 | 36206 ft | 422 kts | 225° |
| 2026-04-25 15:24 | 51.01461 | -1.25441 | 36204 ft | 421 kts | 225° |
| 2026-04-25 15:24 | 50.97943 | -1.30793 | 36203 ft | 421 kts | 225° |
| 2026-04-25 15:25 | 50.92589 | -1.37577 | 36202 ft | 424 kts | 215° |
| 2026-04-25 15:25 | 50.87666 | -1.42705 | 36202 ft | 424 kts | 215° |
| 2026-04-25 15:26 | 50.82728 | -1.47826 | 36198 ft | 424 kts | 215° |
| 2026-04-25 15:26 | 50.77791 | -1.52943 | 36219 ft | 425 kts | 215° |
| 2026-04-25 15:27 | 50.72846 | -1.58056 | 36223 ft | 425 kts | 215° |
| 2026-04-25 15:28 | 50.65423 | -1.65706 | 36224 ft | 425 kts | 215° |
| 2026-04-25 15:28 | 50.60468 | -1.70790 | 36214 ft | 425 kts | 215° |
| 2026-04-25 15:29 | 50.55511 | -1.75868 | 36220 ft | 425 kts | 215° |
| 2026-04-25 15:29 | 50.50551 | -1.80939 | 36220 ft | 425 kts | 215° |
| 2026-04-25 15:30 | 50.46427 | -1.85142 | 36229 ft | 425 kts | 215° |
| 2026-04-25 15:30 | 50.40613 | -1.91063 | 36417 ft | 427 kts | 215° |
| 2026-04-25 15:30 | 50.38122 | -1.93593 | 36641 ft | 427 kts | 215° |
| 2026-04-25 15:31 | 50.35630 | -1.96118 | 36877 ft | 427 kts | 215° |
| 2026-04-25 15:31 | 50.33137 | -1.98637 | 37103 ft | 426 kts | 215° |
| 2026-04-25 15:31 | 50.30645 | -2.01156 | 37203 ft | 427 kts | 215° |
| 2026-04-25 15:32 | 50.25690 | -2.06148 | 37210 ft | 426 kts | 215° |
| 2026-04-25 15:32 | 50.20690 | -2.11117 | 37206 ft | 426 kts | 214° |
| 2026-04-25 15:33 | 50.13129 | -2.18443 | 37206 ft | 426 kts | 214° |
| 2026-04-25 15:33 | 50.08090 | -2.23324 | 37209 ft | 427 kts | 214° |
| 2026-04-25 15:34 | 50.03051 | -2.28204 | 37207 ft | 427 kts | 214° |
| 2026-04-25 15:34 | 49.99673 | -2.31464 | 37208 ft | 427 kts | 214° |
| 2026-04-25 15:35 | 49.90121 | -2.39587 | 37203 ft | 430 kts | 206° |
| 2026-04-25 15:36 | 49.81859 | -2.45072 | 37204 ft | 431 kts | 206° |
| 2026-04-25 15:36 | 49.76347 | -2.48722 | 37207 ft | 431 kts | 206° |
| 2026-04-25 15:37 | 49.70828 | -2.52365 | 37202 ft | 431 kts | 206° |
| 2026-04-25 15:37 | 49.65311 | -2.56007 | 37189 ft | 432 kts | 206° |
| 2026-04-25 15:38 | 49.59783 | -2.59641 | 37186 ft | 432 kts | 206° |
| 2026-04-25 15:38 | 49.54255 | -2.63266 | 37183 ft | 432 kts | 206° |
| 2026-04-25 15:39 | 49.48722 | -2.66885 | 37171 ft | 432 kts | 206° |
| 2026-04-25 15:39 | 49.43187 | -2.70503 | 37174 ft | 432 kts | 206° |
| 2026-04-25 15:40 | 49.39517 | -2.72896 | 37177 ft | 433 kts | 206° |
| 2026-04-25 15:40 | 49.32100 | -2.77722 | 37185 ft | 433 kts | 206° |
| 2026-04-25 15:41 | 49.26548 | -2.81319 | 37193 ft | 433 kts | 206° |
| 2026-04-25 15:41 | 49.20996 | -2.84909 | 37198 ft | 433 kts | 206° |
| 2026-04-25 15:42 | 49.15438 | -2.88496 | 37198 ft | 434 kts | 206° |
| 2026-04-25 15:42 | 49.09915 | -2.92047 | 37198 ft | 434 kts | 205° |
| 2026-04-25 15:43 | 49.04351 | -2.95611 | 37197 ft | 434 kts | 205° |
| 2026-04-25 15:43 | 48.98782 | -2.99176 | 37192 ft | 434 kts | 206° |
| 2026-04-25 15:44 | 48.93212 | -3.02742 | 37194 ft | 434 kts | 205° |
| 2026-04-25 15:44 | 48.87637 | -3.06294 | 37195 ft | 435 kts | 205° |
| 2026-04-25 15:45 | 48.82058 | -3.09838 | 37191 ft | 435 kts | 206° |
| 2026-04-25 15:45 | 48.78320 | -3.12204 | 37192 ft | 435 kts | 206° |
| 2026-04-25 15:46 | 48.70886 | -3.16910 | 37186 ft | 435 kts | 206° |
| 2026-04-25 15:46 | 48.65296 | -3.20449 | 37186 ft | 435 kts | 206° |
| 2026-04-25 15:47 | 48.60645 | -3.23370 | 37176 ft | 436 kts | 206° |
| 2026-04-25 15:47 | 48.55048 | -3.26876 | 37177 ft | 436 kts | 206° |
| 2026-04-25 15:48 | 48.49448 | -3.30391 | 37174 ft | 436 kts | 206° |
| 2026-04-25 15:48 | 48.43842 | -3.33906 | 37176 ft | 436 kts | 206° |
| 2026-04-25 15:49 | 48.38239 | -3.37406 | 37165 ft | 436 kts | 206° |
| 2026-04-25 15:49 | 48.32626 | -3.40894 | 37161 ft | 436 kts | 205° |
| 2026-04-25 15:50 | 48.27010 | -3.44374 | 37160 ft | 437 kts | 206° |
| 2026-04-25 15:50 | 48.21392 | -3.47854 | 37155 ft | 437 kts | 206° |
| 2026-04-25 15:51 | 48.16719 | -3.50742 | 37149 ft | 437 kts | 206° |
| 2026-04-25 15:51 | 48.10144 | -3.54797 | 37150 ft | 437 kts | 206° |
| 2026-04-25 15:52 | 48.04515 | -3.58263 | 37160 ft | 438 kts | 206° |
| 2026-04-25 15:52 | 47.98882 | -3.61719 | 37160 ft | 438 kts | 206° |
| 2026-04-25 15:53 | 47.93246 | -3.65172 | 37153 ft | 438 kts | 205° |
| 2026-04-25 15:53 | 47.87606 | -3.68616 | 37157 ft | 438 kts | 205° |
| 2026-04-25 15:54 | 47.81963 | -3.72048 | 37164 ft | 438 kts | 205° |
| 2026-04-25 15:54 | 47.76354 | -3.75448 | 37164 ft | 438 kts | 205° |
| 2026-04-25 15:55 | 47.70712 | -3.78869 | 37159 ft | 438 kts | 206° |
| 2026-04-25 15:55 | 47.65065 | -3.82293 | 37180 ft | 438 kts | 206° |
| 2026-04-25 15:56 | 47.59413 | -3.85707 | 37179 ft | 438 kts | 206° |
| 2026-04-25 15:56 | 47.53761 | -3.89108 | 37186 ft | 438 kts | 205° |
| 2026-04-25 15:57 | 47.48106 | -3.92504 | 37183 ft | 439 kts | 205° |
| 2026-04-25 15:57 | 47.42450 | -3.95891 | 37177 ft | 439 kts | 205° |
| 2026-04-25 15:58 | 47.36787 | -3.99275 | 37188 ft | 439 kts | 205° |
| 2026-04-25 15:58 | 47.31126 | -4.02650 | 37184 ft | 439 kts | 205° |
| 2026-04-25 15:59 | 47.25458 | -4.06024 | 37187 ft | 439 kts | 205° |
| 2026-04-25 15:59 | 47.19788 | -4.09387 | 37189 ft | 439 kts | 205° |
| 2026-04-25 16:00 | 47.15992 | -4.11631 | 37193 ft | 439 kts | 205° |
| 2026-04-25 16:00 | 47.08446 | -4.16096 | 37186 ft | 439 kts | 205° |
| 2026-04-25 16:01 | 47.02779 | -4.19437 | 37190 ft | 439 kts | 205° |
| 2026-04-25 16:01 | 46.97104 | -4.22782 | 37193 ft | 439 kts | 205° |
| 2026-04-25 16:02 | 46.91433 | -4.26121 | 37196 ft | 439 kts | 205° |
| 2026-04-25 16:02 | 46.85757 | -4.29444 | 37191 ft | 440 kts | 205° |
| 2026-04-25 16:03 | 46.80071 | -4.32750 | 37192 ft | 440 kts | 205° |
| 2026-04-25 16:03 | 46.74387 | -4.36062 | 37194 ft | 440 kts | 205° |
| 2026-04-25 16:04 | 46.68708 | -4.39373 | 37206 ft | 440 kts | 205° |
| 2026-04-25 16:04 | 46.63019 | -4.42668 | 37206 ft | 440 kts | 205° |
| 2026-04-25 16:05 | 46.57333 | -4.45964 | 37206 ft | 440 kts | 205° |
| 2026-04-25 16:06 | 46.48807 | -4.50889 | 37196 ft | 440 kts | 205° |
| 2026-04-25 16:06 | 46.43120 | -4.54169 | 37201 ft | 440 kts | 205° |
| 2026-04-25 16:07 | 46.37434 | -4.57435 | 37204 ft | 440 kts | 205° |
| 2026-04-25 16:07 | 46.31780 | -4.60665 | 37206 ft | 440 kts | 205° |
| 2026-04-25 16:08 | 46.26087 | -4.63913 | 37200 ft | 440 kts | 204° |
| 2026-04-25 16:08 | 46.20396 | -4.67163 | 37204 ft | 440 kts | 204° |
| 2026-04-25 16:09 | 46.14703 | -4.70406 | 37209 ft | 440 kts | 204° |
| 2026-04-25 16:09 | 46.09016 | -4.73636 | 37209 ft | 439 kts | 204° |
| 2026-04-25 16:10 | 46.03328 | -4.76864 | 37195 ft | 439 kts | 204° |
| 2026-04-25 16:10 | 45.97643 | -4.80080 | 37198 ft | 439 kts | 204° |
| 2026-04-25 16:11 | 45.91952 | -4.83294 | 37199 ft | 439 kts | 204° |
| 2026-04-25 16:11 | 45.86255 | -4.86502 | 37201 ft | 440 kts | 204° |
| 2026-04-25 16:12 | 45.80555 | -4.89707 | 37211 ft | 440 kts | 204° |
| 2026-04-25 16:12 | 45.74852 | -4.92897 | 37215 ft | 440 kts | 204° |
| 2026-04-25 16:13 | 45.69150 | -4.96084 | 37215 ft | 440 kts | 204° |
| 2026-04-25 16:13 | 45.63453 | -4.99271 | 37211 ft | 440 kts | 204° |
| 2026-04-25 16:14 | 45.57752 | -5.02445 | 37218 ft | 440 kts | 204° |
| 2026-04-25 16:14 | 45.52051 | -5.05601 | 37218 ft | 439 kts | 204° |
| 2026-04-25 16:15 | 45.46353 | -5.08763 | 37206 ft | 439 kts | 204° |
| 2026-04-25 16:15 | 45.40654 | -5.11917 | 37218 ft | 439 kts | 204° |
| 2026-04-25 16:16 | 45.34957 | -5.15065 | 37217 ft | 439 kts | 204° |
| 2026-04-25 16:16 | 45.29254 | -5.18205 | 37213 ft | 440 kts | 204° |
| 2026-04-25 16:17 | 45.23586 | -5.21314 | 37214 ft | 440 kts | 204° |
| 2026-04-25 16:17 | 45.17879 | -5.24437 | 37215 ft | 440 kts | 204° |
| 2026-04-25 16:18 | 45.12166 | -5.27568 | 37228 ft | 440 kts | 204° |
| 2026-04-25 16:18 | 45.06459 | -5.30707 | 37219 ft | 440 kts | 204° |
| 2026-04-25 16:19 | 45.00744 | -5.33824 | 37215 ft | 440 kts | 203° |
| 2026-04-25 16:19 | 44.95023 | -5.36923 | 37215 ft | 440 kts | 203° |
| 2026-04-25 16:20 | 44.86435 | -5.41572 | 37232 ft | 441 kts | 203° |
| 2026-04-25 16:21 | 44.77849 | -5.46210 | 37232 ft | 440 kts | 203° |
| 2026-04-25 16:21 | 44.72128 | -5.49300 | 37228 ft | 440 kts | 203° |
| 2026-04-25 16:22 | 44.66408 | -5.52381 | 37225 ft | 440 kts | 203° |
| 2026-04-25 16:22 | 44.60692 | -5.55445 | 37216 ft | 440 kts | 204° |
| 2026-04-25 16:23 | 44.55058 | -5.58765 | 37219 ft | 439 kts | 206° |
| 2026-04-25 16:23 | 44.49505 | -5.62318 | 37215 ft | 438 kts | 207° |
| 2026-04-25 16:24 | 44.43948 | -5.65834 | 37223 ft | 438 kts | 206° |
| 2026-04-25 16:24 | 44.38361 | -5.69272 | 37211 ft | 438 kts | 206° |
| 2026-04-25 16:25 | 44.32772 | -5.72688 | 37202 ft | 438 kts | 206° |
| 2026-04-25 16:25 | 44.27184 | -5.76110 | 37199 ft | 439 kts | 206° |
| 2026-04-25 16:26 | 44.21594 | -5.79537 | 37215 ft | 439 kts | 206° |
| 2026-04-25 16:26 | 44.15998 | -5.82954 | 37216 ft | 439 kts | 205° |
| 2026-04-25 16:27 | 44.10396 | -5.86364 | 37220 ft | 440 kts | 205° |
| 2026-04-25 16:27 | 44.04790 | -5.89768 | 37219 ft | 440 kts | 205° |
| 2026-04-25 16:28 | 43.99184 | -5.93170 | 37218 ft | 440 kts | 205° |
| 2026-04-25 16:28 | 43.93577 | -5.96566 | 37220 ft | 440 kts | 205° |
| 2026-04-25 16:29 | 43.87967 | -5.99952 | 37214 ft | 440 kts | 205° |
| 2026-04-25 16:29 | 43.82391 | -6.03307 | 37211 ft | 440 kts | 205° |
| 2026-04-25 16:30 | 43.77688 | -6.06137 | 37214 ft | 440 kts | 205° |
| 2026-04-25 16:30 | 43.71160 | -6.10056 | 37206 ft | 440 kts | 205° |
| 2026-04-25 16:31 | 43.65534 | -6.13423 | 37199 ft | 440 kts | 205° |
| 2026-04-25 16:31 | 43.59914 | -6.16787 | 37202 ft | 440 kts | 205° |
| 2026-04-25 16:32 | 43.54288 | -6.20144 | 37206 ft | 441 kts | 205° |
| 2026-04-25 16:32 | 43.48662 | -6.23488 | 37203 ft | 440 kts | 205° |
| 2026-04-25 16:33 | 43.43036 | -6.26835 | 37193 ft | 440 kts | 205° |
| 2026-04-25 16:33 | 43.37409 | -6.30172 | 37186 ft | 441 kts | 205° |
| 2026-04-25 16:34 | 43.31771 | -6.33508 | 37174 ft | 441 kts | 205° |
| 2026-04-25 16:34 | 43.27088 | -6.36274 | 37172 ft | 441 kts | 205° |
| 2026-04-25 16:35 | 43.22360 | -6.39058 | 37152 ft | 441 kts | 205° |
| 2026-04-25 16:35 | 43.15805 | -6.42907 | 37140 ft | 441 kts | 205° |
| 2026-04-25 16:36 | 43.10164 | -6.46226 | 37141 ft | 441 kts | 205° |
| 2026-04-25 16:36 | 43.04526 | -6.49539 | 37131 ft | 441 kts | 205° |
| 2026-04-25 16:37 | 42.98889 | -6.52833 | 37120 ft | 441 kts | 205° |
| 2026-04-25 16:37 | 42.93249 | -6.56121 | 37115 ft | 441 kts | 205° |
| 2026-04-25 16:38 | 42.87611 | -6.59398 | 37103 ft | 440 kts | 205° |
| 2026-04-25 16:38 | 42.81978 | -6.62678 | 37084 ft | 440 kts | 205° |
| 2026-04-25 16:39 | 42.76337 | -6.65954 | 37080 ft | 441 kts | 205° |
| 2026-04-25 16:39 | 42.70689 | -6.69223 | 37080 ft | 441 kts | 204° |
| 2026-04-25 16:40 | 42.65033 | -6.72482 | 37077 ft | 442 kts | 204° |
| 2026-04-25 16:40 | 42.59373 | -6.75750 | 37080 ft | 442 kts | 205° |
| 2026-04-25 16:41 | 42.53714 | -6.79019 | 37077 ft | 442 kts | 204° |
| 2026-04-25 16:41 | 42.45216 | -6.83892 | 37082 ft | 442 kts | 204° |
| 2026-04-25 16:42 | 42.39551 | -6.87131 | 37081 ft | 442 kts | 204° |
| 2026-04-25 16:42 | 42.33885 | -6.90372 | 37085 ft | 442 kts | 204° |
| 2026-04-25 16:43 | 42.28215 | -6.93609 | 37090 ft | 442 kts | 204° |
| 2026-04-25 16:43 | 42.22586 | -6.96811 | 37092 ft | 442 kts | 204° |
| 2026-04-25 16:44 | 42.16916 | -7.00026 | 37092 ft | 442 kts | 204° |
| 2026-04-25 16:44 | 42.11246 | -7.03244 | 37090 ft | 442 kts | 204° |
| 2026-04-25 16:45 | 42.05576 | -7.06473 | 37090 ft | 442 kts | 204° |
| 2026-04-25 16:45 | 41.99903 | -7.09679 | 37088 ft | 442 kts | 204° |
| 2026-04-25 16:46 | 41.94225 | -7.12874 | 37078 ft | 442 kts | 204° |
| 2026-04-25 16:46 | 41.89465 | -7.15549 | 37075 ft | 443 kts | 204° |
| 2026-04-25 16:47 | 41.82860 | -7.19253 | 37069 ft | 443 kts | 204° |
| 2026-04-25 16:47 | 41.77172 | -7.22441 | 37059 ft | 443 kts | 204° |
| 2026-04-25 16:48 | 41.71750 | -7.26295 | 37056 ft | 441 kts | 213° |
| 2026-04-25 16:48 | 41.66489 | -7.30521 | 37056 ft | 441 kts | 212° |
| 2026-04-25 16:49 | 41.61213 | -7.34726 | 37055 ft | 442 kts | 212° |
| 2026-04-25 16:49 | 41.55935 | -7.38925 | 37058 ft | 442 kts | 212° |
| 2026-04-25 16:50 | 41.50659 | -7.43129 | 37054 ft | 442 kts | 212° |
| 2026-04-25 16:50 | 41.45372 | -7.47330 | 37053 ft | 442 kts | 212° |
| 2026-04-25 16:51 | 41.40085 | -7.51525 | 37053 ft | 443 kts | 212° |
| 2026-04-25 16:51 | 41.35688 | -7.55012 | 37051 ft | 443 kts | 212° |
| 2026-04-25 16:52 | 41.29493 | -7.59902 | 37051 ft | 443 kts | 212° |
| 2026-04-25 16:52 | 41.24187 | -7.64075 | 37046 ft | 443 kts | 212° |
| 2026-04-25 16:53 | 41.16225 | -7.70333 | 37054 ft | 444 kts | 213° |
| 2026-04-25 16:54 | 41.10913 | -7.74510 | 37058 ft | 444 kts | 212° |
| 2026-04-25 16:54 | 41.05600 | -7.78686 | 37058 ft | 444 kts | 212° |
| 2026-04-25 16:55 | 41.00285 | -7.82833 | 37056 ft | 444 kts | 212° |
| 2026-04-25 16:55 | 40.94961 | -7.86971 | 37057 ft | 443 kts | 212° |
| 2026-04-25 16:56 | 40.89641 | -7.91106 | 37067 ft | 443 kts | 212° |
| 2026-04-25 16:56 | 40.84330 | -7.95234 | 37058 ft | 443 kts | 212° |
| 2026-04-25 16:57 | 40.79014 | -7.99361 | 37061 ft | 443 kts | 212° |
| 2026-04-25 16:57 | 40.73695 | -8.03478 | 37063 ft | 443 kts | 212° |
| 2026-04-25 16:58 | 40.68369 | -8.07598 | 37070 ft | 444 kts | 212° |
| 2026-04-25 16:58 | 40.63041 | -8.11704 | 37070 ft | 444 kts | 212° |
| 2026-04-25 16:59 | 40.57742 | -8.15780 | 37064 ft | 444 kts | 212° |
| 2026-04-25 16:59 | 40.52402 | -8.19886 | 37067 ft | 445 kts | 212° |
| 2026-04-25 17:00 | 40.47053 | -8.23988 | 37071 ft | 445 kts | 211° |
| 2026-04-25 17:00 | 40.41698 | -8.28089 | 37075 ft | 445 kts | 212° |
| 2026-04-25 17:01 | 40.36345 | -8.32187 | 37078 ft | 445 kts | 211° |
| 2026-04-25 17:01 | 40.30990 | -8.36273 | 37082 ft | 445 kts | 213° |
| 2026-04-25 17:02 | 40.25641 | -8.40348 | 37085 ft | 444 kts | 212° |
| 2026-04-25 17:02 | 40.20299 | -8.44412 | 37086 ft | 444 kts | 212° |
| 2026-04-25 17:03 | 40.14956 | -8.48457 | 37085 ft | 444 kts | 212° |
| 2026-04-25 17:03 | 40.09609 | -8.52488 | 37088 ft | 444 kts | 212° |
| 2026-04-25 17:04 | 40.04261 | -8.56527 | 37091 ft | 444 kts | 212° |
| 2026-04-25 17:04 | 39.98917 | -8.60574 | 37089 ft | 444 kts | 212° |
| 2026-04-25 17:05 | 39.93570 | -8.64611 | 37096 ft | 444 kts | 212° |
| 2026-04-25 17:05 | 39.85535 | -8.70636 | 37096 ft | 445 kts | 212° |
| 2026-04-25 17:06 | 39.80173 | -8.74648 | 37103 ft | 444 kts | 212° |
| 2026-04-25 17:06 | 39.74830 | -8.78642 | 37110 ft | 442 kts | 213° |
| 2026-04-25 17:07 | 39.69500 | -8.82630 | 37109 ft | 442 kts | 212° |
| 2026-04-25 17:07 | 39.64176 | -8.86600 | 37100 ft | 441 kts | 213° |
| 2026-04-25 17:08 | 39.58849 | -8.90567 | 37095 ft | 442 kts | 212° |
| 2026-04-25 17:08 | 39.53518 | -8.94520 | 37104 ft | 441 kts | 212° |
| 2026-04-25 17:09 | 39.48229 | -8.98449 | 37097 ft | 441 kts | 212° |
| 2026-04-25 17:09 | 39.42902 | -9.02394 | 37090 ft | 441 kts | 212° |
| 2026-04-25 17:10 | 39.37572 | -9.06334 | 37094 ft | 442 kts | 211° |
| 2026-04-25 17:10 | 39.32232 | -9.10270 | 37100 ft | 441 kts | 211° |
| 2026-04-25 17:11 | 39.26910 | -9.14188 | 37107 ft | 440 kts | 212° |
| 2026-04-25 17:11 | 39.21599 | -9.18090 | 37099 ft | 439 kts | 212° |
| 2026-04-25 17:12 | 39.16300 | -9.21985 | 37096 ft | 438 kts | 212° |
| 2026-04-25 17:12 | 39.11010 | -9.25863 | 37094 ft | 438 kts | 212° |
| 2026-04-25 17:13 | 39.07468 | -9.28449 | 37097 ft | 438 kts | 212° |
| 2026-04-25 17:13 | 39.00415 | -9.33585 | 37094 ft | 438 kts | 212° |
| 2026-04-25 17:14 | 38.95117 | -9.37444 | 37088 ft | 438 kts | 212° |
| 2026-04-25 17:14 | 38.89821 | -9.41309 | 37093 ft | 438 kts | 212° |
| 2026-04-25 17:15 | 38.84524 | -9.45157 | 37095 ft | 438 kts | 212° |
| 2026-04-25 17:15 | 38.79224 | -9.48993 | 37096 ft | 437 kts | 211° |
| 2026-04-25 17:16 | 38.73930 | -9.52825 | 37098 ft | 437 kts | 212° |
| 2026-04-25 17:16 | 38.68641 | -9.56646 | 37096 ft | 436 kts | 212° |
| 2026-04-25 17:17 | 38.63350 | -9.60461 | 37091 ft | 436 kts | 212° |
| 2026-04-25 17:17 | 38.58055 | -9.64265 | 37089 ft | 436 kts | 211° |
| 2026-04-25 17:18 | 38.52762 | -9.68070 | 37094 ft | 436 kts | 212° |
| 2026-04-25 17:18 | 38.47476 | -9.71869 | 37090 ft | 436 kts | 212° |
| 2026-04-25 17:19 | 38.42183 | -9.75656 | 37093 ft | 436 kts | 212° |
| 2026-04-25 17:19 | 38.36890 | -9.79431 | 37091 ft | 436 kts | 213° |
| 2026-04-25 17:20 | 38.32494 | -9.82570 | 37087 ft | 436 kts | 212° |
| 2026-04-25 17:20 | 38.27213 | -9.86345 | 37107 ft | 435 kts | 211° |
| 2026-04-25 17:21 | 38.21944 | -9.90096 | 37100 ft | 433 kts | 212° |
| 2026-04-25 17:21 | 38.15831 | -9.94426 | 37103 ft | 432 kts | 212° |
| 2026-04-25 17:22 | 38.12319 | -9.96914 | 37102 ft | 432 kts | 212° |
| 2026-04-25 17:22 | 38.06188 | -10.01267 | 37108 ft | 432 kts | 212° |
| 2026-04-25 17:23 | 38.00938 | -10.04974 | 37109 ft | 432 kts | 212° |
| 2026-04-25 17:23 | 37.95695 | -10.08675 | 37102 ft | 431 kts | 212° |
| 2026-04-25 17:24 | 37.90451 | -10.12377 | 37107 ft | 431 kts | 212° |
| 2026-04-25 17:24 | 37.85204 | -10.16068 | 37109 ft | 431 kts | 212° |
| 2026-04-25 17:25 | 37.79954 | -10.19752 | 37097 ft | 431 kts | 212° |
| 2026-04-25 17:25 | 37.74709 | -10.23425 | 37112 ft | 431 kts | 211° |
| 2026-04-25 17:26 | 37.69473 | -10.27088 | 37106 ft | 430 kts | 211° |
| 2026-04-25 17:26 | 37.64280 | -10.30715 | 37113 ft | 429 kts | 211° |
| 2026-04-25 17:27 | 37.59058 | -10.34362 | 37108 ft | 429 kts | 212° |
| 2026-04-25 17:27 | 37.54682 | -10.37415 | 37109 ft | 429 kts | 212° |
| 2026-04-25 17:28 | 37.48620 | -10.41639 | 37105 ft | 428 kts | 212° |
| 2026-04-25 17:28 | 37.43399 | -10.45263 | 37112 ft | 429 kts | 212° |
| 2026-04-25 17:29 | 37.38171 | -10.48877 | 37106 ft | 429 kts | 211° |
| 2026-04-25 17:29 | 37.32940 | -10.52491 | 37113 ft | 429 kts | 211° |
| 2026-04-25 17:30 | 37.27714 | -10.56106 | 37113 ft | 429 kts | 212° |
| 2026-04-25 17:30 | 37.22482 | -10.59717 | 37111 ft | 429 kts | 212° |
| 2026-04-25 17:31 | 37.17258 | -10.63314 | 37119 ft | 428 kts | 211° |
| 2026-04-25 17:31 | 37.12037 | -10.66896 | 37122 ft | 428 kts | 211° |
| 2026-04-25 17:32 | 37.06822 | -10.70482 | 37117 ft | 427 kts | 211° |
| 2026-04-25 17:32 | 37.01605 | -10.74063 | 37120 ft | 427 kts | 211° |
| 2026-04-25 17:33 | 36.96395 | -10.77636 | 37114 ft | 427 kts | 211° |
| 2026-04-25 17:33 | 36.91180 | -10.81201 | 37115 ft | 427 kts | 211° |
| 2026-04-25 17:34 | 36.85961 | -10.84757 | 37115 ft | 427 kts | 211° |
| 2026-04-25 17:34 | 36.80742 | -10.88313 | 37121 ft | 427 kts | 211° |
| 2026-04-25 17:35 | 36.75556 | -10.91839 | 37118 ft | 427 kts | 211° |
| 2026-04-25 17:35 | 36.70337 | -10.95381 | 37116 ft | 427 kts | 211° |
| 2026-04-25 17:36 | 36.65122 | -10.98911 | 37119 ft | 427 kts | 211° |
| 2026-04-25 17:36 | 36.59911 | -11.02436 | 37121 ft | 426 kts | 210° |
| 2026-04-25 17:37 | 36.54703 | -11.05959 | 37119 ft | 426 kts | 211° |
| 2026-04-25 17:37 | 36.49497 | -11.09478 | 37115 ft | 426 kts | 211° |
| 2026-04-25 17:38 | 36.45168 | -11.12397 | 37112 ft | 426 kts | 211° |
| 2026-04-25 17:38 | 36.39082 | -11.16486 | 37120 ft | 425 kts | 211° |
| 2026-04-25 17:39 | 36.33882 | -11.19982 | 37116 ft | 425 kts | 211° |
| 2026-04-25 17:39 | 36.28678 | -11.23468 | 37111 ft | 425 kts | 211° |
| 2026-04-25 17:40 | 36.23476 | -11.26948 | 37114 ft | 425 kts | 210° |
| 2026-04-25 17:40 | 36.18273 | -11.30423 | 37108 ft | 425 kts | 211° |
| 2026-04-25 17:41 | 36.13076 | -11.33900 | 37115 ft | 424 kts | 210° |
| 2026-04-25 17:41 | 36.07883 | -11.37365 | 37115 ft | 424 kts | 210° |
| 2026-04-25 17:42 | 36.02690 | -11.40820 | 37116 ft | 424 kts | 210° |
| 2026-04-25 17:42 | 35.97499 | -11.44269 | 37116 ft | 424 kts | 210° |
| 2026-04-25 17:43 | 35.92279 | -11.47642 | 37110 ft | 424 kts | 209° |
| 2026-04-25 17:43 | 35.87014 | -11.50915 | 37111 ft | 424 kts | 208° |
| 2026-04-25 17:44 | 35.81742 | -11.54165 | 37114 ft | 424 kts | 208° |
| 2026-04-25 17:44 | 35.76510 | -11.57408 | 37114 ft | 424 kts | 208° |
| 2026-04-25 17:45 | 35.72992 | -11.59597 | 37119 ft | 423 kts | 208° |
| 2026-04-25 17:45 | 35.65994 | -11.63949 | 37118 ft | 423 kts | 208° |
| 2026-04-25 17:46 | 35.60738 | -11.67214 | 37119 ft | 423 kts | 208° |
| 2026-04-25 17:46 | 35.55485 | -11.70461 | 37120 ft | 423 kts | 208° |
| 2026-04-25 17:47 | 35.50234 | -11.73710 | 37117 ft | 422 kts | 208° |
| 2026-04-25 17:47 | 35.44989 | -11.76952 | 37114 ft | 422 kts | 208° |
| 2026-04-25 17:48 | 35.37116 | -11.81800 | 37110 ft | 422 kts | 208° |
| 2026-04-25 17:49 | 35.31872 | -11.85032 | 37106 ft | 422 kts | 208° |
| 2026-04-25 17:49 | 35.26627 | -11.88254 | 37110 ft | 422 kts | 208° |
| 2026-04-25 17:50 | 35.21377 | -11.91468 | 37115 ft | 422 kts | 208° |
| 2026-04-25 17:50 | 35.16126 | -11.94682 | 37113 ft | 422 kts | 208° |
| 2026-04-25 17:51 | 35.10875 | -11.97898 | 37109 ft | 422 kts | 207° |
| 2026-04-25 17:51 | 35.05622 | -12.01108 | 37113 ft | 422 kts | 208° |
| 2026-04-25 17:52 | 35.00369 | -12.04312 | 37111 ft | 422 kts | 207° |
| 2026-04-25 17:52 | 34.95109 | -12.07514 | 37118 ft | 422 kts | 207° |
| 2026-04-25 17:53 | 34.89851 | -12.10706 | 37114 ft | 422 kts | 207° |
| 2026-04-25 17:53 | 34.84596 | -12.13900 | 37117 ft | 422 kts | 207° |
| 2026-04-25 17:54 | 34.79341 | -12.17093 | 37117 ft | 422 kts | 207° |
| 2026-04-25 17:54 | 34.74087 | -12.20277 | 37115 ft | 422 kts | 208° |
| 2026-04-25 17:55 | 34.68831 | -12.23450 | 37118 ft | 422 kts | 207° |
| 2026-04-25 17:55 | 34.63613 | -12.26601 | 37115 ft | 422 kts | 207° |
| 2026-04-25 17:56 | 34.58356 | -12.29767 | 37111 ft | 421 kts | 207° |
| 2026-04-25 17:56 | 34.53103 | -12.32928 | 37110 ft | 421 kts | 207° |
| 2026-04-25 17:57 | 34.47849 | -12.36084 | 37106 ft | 421 kts | 207° |
| 2026-04-25 17:57 | 34.42594 | -12.39234 | 37110 ft | 421 kts | 207° |
| 2026-04-25 17:58 | 34.37342 | -12.42392 | 37111 ft | 421 kts | 207° |
| 2026-04-25 17:58 | 34.32091 | -12.45546 | 37103 ft | 422 kts | 207° |
| 2026-04-25 17:59 | 34.26829 | -12.48694 | 37110 ft | 422 kts | 207° |
| 2026-04-25 17:59 | 34.21569 | -12.51832 | 37111 ft | 422 kts | 207° |
| 2026-04-25 18:00 | 34.16300 | -12.54965 | 37108 ft | 422 kts | 207° |
| 2026-04-25 18:00 | 34.11038 | -12.58098 | 37111 ft | 422 kts | 207° |
| 2026-04-25 18:01 | 34.05772 | -12.61227 | 37107 ft | 422 kts | 207° |
| 2026-04-25 18:01 | 34.00507 | -12.64356 | 37116 ft | 422 kts | 207° |
| 2026-04-25 18:02 | 33.95244 | -12.67487 | 37106 ft | 422 kts | 207° |
| 2026-04-25 18:02 | 33.89973 | -12.70606 | 37115 ft | 422 kts | 207° |
| 2026-04-25 18:03 | 33.84704 | -12.73710 | 37117 ft | 422 kts | 207° |
| 2026-04-25 18:03 | 33.79476 | -12.76801 | 37098 ft | 421 kts | 207° |
| 2026-04-25 18:04 | 33.74176 | -12.79930 | 37108 ft | 421 kts | 207° |
| 2026-04-25 18:04 | 33.68944 | -12.83007 | 37109 ft | 421 kts | 207° |
| 2026-04-25 18:05 | 33.63678 | -12.86101 | 37104 ft | 421 kts | 207° |
| 2026-04-25 18:05 | 33.58417 | -12.89197 | 37099 ft | 421 kts | 207° |
| 2026-04-25 18:06 | 33.53147 | -12.92289 | 37098 ft | 422 kts | 207° |
| 2026-04-25 18:06 | 33.47876 | -12.95372 | 37093 ft | 422 kts | 207° |
| 2026-04-25 18:07 | 33.42610 | -12.98453 | 37100 ft | 422 kts | 207° |
| 2026-04-25 18:07 | 33.37332 | -13.01540 | 37110 ft | 422 kts | 207° |
| 2026-04-25 18:08 | 33.32051 | -13.04607 | 37101 ft | 422 kts | 207° |
| 2026-04-25 18:08 | 33.27664 | -13.07164 | 37102 ft | 422 kts | 206° |
| 2026-04-25 18:09 | 33.22384 | -13.10247 | 37105 ft | 422 kts | 207° |
| 2026-04-25 18:09 | 33.17102 | -13.13318 | 37105 ft | 422 kts | 206° |
| 2026-04-25 18:10 | 33.11818 | -13.16382 | 37096 ft | 423 kts | 207° |
| 2026-04-25 18:10 | 33.06520 | -13.19445 | 37095 ft | 423 kts | 206° |
| 2026-04-25 18:11 | 33.01218 | -13.22511 | 37097 ft | 424 kts | 207° |
| 2026-04-25 18:11 | 32.95913 | -13.25586 | 37094 ft | 424 kts | 206° |
| 2026-04-25 18:12 | 32.90598 | -13.28649 | 37098 ft | 424 kts | 207° |
| 2026-04-25 18:12 | 32.85279 | -13.31707 | 37105 ft | 425 kts | 206° |
| 2026-04-25 18:13 | 32.79955 | -13.34771 | 37101 ft | 425 kts | 206° |
| 2026-04-25 18:13 | 32.74628 | -13.37831 | 37111 ft | 426 kts | 207° |
| 2026-04-25 18:14 | 32.66626 | -13.42414 | 37110 ft | 426 kts | 206° |
| 2026-04-25 18:14 | 32.61293 | -13.45476 | 37117 ft | 426 kts | 207° |
| 2026-04-25 18:15 | 32.55963 | -13.48534 | 37118 ft | 425 kts | 207° |
| 2026-04-25 18:15 | 32.50635 | -13.51588 | 37114 ft | 426 kts | 207° |
| 2026-04-25 18:16 | 32.45298 | -13.54632 | 37110 ft | 426 kts | 207° |
| 2026-04-25 18:17 | 32.37280 | -13.59192 | 37091 ft | 427 kts | 207° |
| 2026-04-25 18:17 | 32.31958 | -13.62213 | 37103 ft | 427 kts | 207° |
| 2026-04-25 18:18 | 32.26597 | -13.65251 | 37097 ft | 427 kts | 206° |
| 2026-04-25 18:18 | 32.21240 | -13.68294 | 37105 ft | 427 kts | 207° |
| 2026-04-25 18:19 | 32.15878 | -13.71342 | 37105 ft | 428 kts | 207° |
| 2026-04-25 18:19 | 32.10511 | -13.74378 | 37101 ft | 428 kts | 207° |
| 2026-04-25 18:20 | 32.05142 | -13.77417 | 37104 ft | 428 kts | 207° |
| 2026-04-25 18:20 | 31.99766 | -13.80439 | 37107 ft | 428 kts | 207° |
| 2026-04-25 18:21 | 31.94385 | -13.83458 | 37110 ft | 428 kts | 207° |
| 2026-04-25 18:21 | 31.89012 | -13.86486 | 37107 ft | 428 kts | 207° |
| 2026-04-25 18:22 | 31.83643 | -13.89520 | 37093 ft | 428 kts | 207° |
| 2026-04-25 18:22 | 31.78264 | -13.92545 | 37092 ft | 429 kts | 207° |
| 2026-04-25 18:23 | 31.72879 | -13.95557 | 37101 ft | 429 kts | 207° |
| 2026-04-25 18:23 | 31.67490 | -13.98571 | 37106 ft | 429 kts | 207° |
| 2026-04-25 18:24 | 31.62100 | -14.01591 | 37107 ft | 429 kts | 207° |
| 2026-04-25 18:24 | 31.56744 | -14.04590 | 37105 ft | 429 kts | 207° |
| 2026-04-25 18:25 | 31.51309 | -14.07610 | 37098 ft | 430 kts | 207° |
| 2026-04-25 18:25 | 31.45944 | -14.10593 | 37098 ft | 430 kts | 207° |
| 2026-04-25 18:26 | 31.40537 | -14.13596 | 37101 ft | 430 kts | 207° |
| 2026-04-25 18:26 | 31.35131 | -14.16599 | 37100 ft | 430 kts | 207° |
| 2026-04-25 18:27 | 31.29723 | -14.19601 | 37103 ft | 430 kts | 207° |
| 2026-04-25 18:27 | 31.24316 | -14.22604 | 37090 ft | 431 kts | 207° |
| 2026-04-25 18:28 | 31.18888 | -14.25600 | 37092 ft | 432 kts | 207° |
| 2026-04-25 18:28 | 31.13453 | -14.28606 | 37089 ft | 432 kts | 207° |
| 2026-04-25 18:29 | 31.05286 | -14.33109 | 37100 ft | 433 kts | 207° |
| 2026-04-25 18:30 | 30.94388 | -14.39114 | 37098 ft | 433 kts | 207° |
| 2026-04-25 18:30 | 30.88875 | -14.41956 | 37096 ft | 435 kts | 200° |
| 2026-04-25 18:31 | 30.83099 | -14.44090 | 37099 ft | 436 kts | 200° |
| 2026-04-25 18:31 | 30.77319 | -14.46218 | 37099 ft | 436 kts | 200° |
| 2026-04-25 18:32 | 30.71532 | -14.48349 | 37102 ft | 436 kts | 200° |
| 2026-04-25 18:32 | 30.65742 | -14.50477 | 37100 ft | 436 kts | 200° |
| 2026-04-25 18:33 | 30.59953 | -14.52602 | 37105 ft | 436 kts | 200° |
| 2026-04-25 18:33 | 30.54205 | -14.54718 | 37107 ft | 436 kts | 200° |
| 2026-04-25 18:34 | 30.48419 | -14.56841 | 37106 ft | 436 kts | 200° |
| 2026-04-25 18:34 | 30.42632 | -14.58956 | 37102 ft | 436 kts | 200° |
| 2026-04-25 18:35 | 30.36848 | -14.61075 | 37092 ft | 436 kts | 201° |
| 2026-04-25 18:35 | 30.31069 | -14.63190 | 37096 ft | 435 kts | 201° |
| 2026-04-25 18:36 | 30.25295 | -14.65297 | 37100 ft | 435 kts | 201° |
| 2026-04-25 18:36 | 30.19525 | -14.67404 | 37097 ft | 435 kts | 201° |
| 2026-04-25 18:37 | 30.13750 | -14.69504 | 37094 ft | 435 kts | 201° |
| 2026-04-25 18:37 | 30.07973 | -14.71603 | 37086 ft | 435 kts | 201° |
| 2026-04-25 18:38 | 30.02199 | -14.73696 | 37094 ft | 435 kts | 201° |
| 2026-04-25 18:38 | 29.96429 | -14.75792 | 37097 ft | 435 kts | 201° |
| 2026-04-25 18:39 | 29.90654 | -14.77885 | 37099 ft | 435 kts | 201° |
| 2026-04-25 18:39 | 29.84878 | -14.79969 | 37100 ft | 435 kts | 201° |
| 2026-04-25 18:40 | 29.79104 | -14.82059 | 37102 ft | 435 kts | 201° |
| 2026-04-25 18:40 | 29.73328 | -14.84145 | 37101 ft | 435 kts | 201° |
| 2026-04-25 18:41 | 29.67555 | -14.86231 | 37101 ft | 435 kts | 201° |
| 2026-04-25 18:41 | 29.64665 | -14.87273 | 36886 ft | 436 kts | 201° |
| 2026-04-25 18:41 | 29.61738 | -14.88331 | 35774 ft | 448 kts | 201° |
| 2026-04-25 18:42 | 29.58776 | -14.89400 | 35428 ft | 440 kts | 201° |
| 2026-04-25 18:42 | 29.57835 | -14.89738 | 35346 ft | 438 kts | 201° |
| 2026-04-25 18:42 | 29.52991 | -14.91472 | 34559 ft | 433 kts | 202° |
| 2026-04-25 18:42 | 29.50122 | -14.92496 | 34105 ft | 431 kts | 202° |
| 2026-04-25 18:43 | 29.47269 | -14.93515 | 33571 ft | 428 kts | 202° |
| 2026-04-25 18:43 | 29.44441 | -14.94526 | 33101 ft | 424 kts | 202° |
| 2026-04-25 18:43 | 29.41638 | -14.95528 | 32641 ft | 420 kts | 202° |
| 2026-04-25 18:43 | 29.38859 | -14.96525 | 32174 ft | 416 kts | 202° |
| 2026-04-25 18:44 | 29.36104 | -14.97517 | 31715 ft | 413 kts | 202° |
| 2026-04-25 18:44 | 29.33409 | -14.98487 | 31280 ft | 410 kts | 202° |
| 2026-04-25 18:44 | 29.30696 | -14.99462 | 30838 ft | 407 kts | 201° |
| 2026-04-25 18:44 | 29.28000 | -15.00426 | 30407 ft | 405 kts | 201° |
| 2026-04-25 18:45 | 29.25316 | -15.01385 | 29941 ft | 403 kts | 202° |
| 2026-04-25 18:45 | 29.22657 | -15.02332 | 29534 ft | 398 kts | 202° |
| 2026-04-25 18:45 | 29.20023 | -15.03271 | 29128 ft | 395 kts | 202° |
| 2026-04-25 18:45 | 29.17412 | -15.04201 | 28731 ft | 391 kts | 202° |
| 2026-04-25 18:46 | 29.14822 | -15.05125 | 28349 ft | 389 kts | 202° |
| 2026-04-25 18:46 | 29.12252 | -15.06044 | 27967 ft | 386 kts | 202° |
| 2026-04-25 18:46 | 29.09690 | -15.06959 | 27571 ft | 385 kts | 202° |
| 2026-04-25 18:46 | 29.07140 | -15.07866 | 27173 ft | 383 kts | 201° |
| 2026-04-25 18:47 | 29.04600 | -15.08769 | 26773 ft | 381 kts | 201° |
| 2026-04-25 18:47 | 29.02074 | -15.09667 | 26366 ft | 380 kts | 201° |
| 2026-04-25 18:47 | 28.99554 | -15.10561 | 25971 ft | 378 kts | 201° |
| 2026-04-25 18:47 | 28.97045 | -15.11450 | 25544 ft | 377 kts | 201° |
| 2026-04-25 18:48 | 28.94542 | -15.12336 | 25117 ft | 376 kts | 201° |
| 2026-04-25 18:48 | 28.92045 | -15.13218 | 24691 ft | 375 kts | 201° |
| 2026-04-25 18:48 | 28.89555 | -15.14101 | 24258 ft | 375 kts | 201° |
| 2026-04-25 18:48 | 28.87069 | -15.14985 | 23823 ft | 374 kts | 201° |
| 2026-04-25 18:49 | 28.84582 | -15.15869 | 23338 ft | 374 kts | 201° |
| 2026-04-25 18:49 | 28.82106 | -15.16746 | 22897 ft | 371 kts | 201° |
| 2026-04-25 18:49 | 28.79650 | -15.17614 | 22456 ft | 368 kts | 201° |
| 2026-04-25 18:49 | 28.77213 | -15.18473 | 22028 ft | 366 kts | 201° |
| 2026-04-25 18:50 | 28.74791 | -15.19325 | 21597 ft | 363 kts | 201° |
| 2026-04-25 18:50 | 28.72383 | -15.20175 | 21163 ft | 361 kts | 201° |
| 2026-04-25 18:50 | 28.69995 | -15.21018 | 20740 ft | 359 kts | 200° |
| 2026-04-25 18:50 | 28.67616 | -15.21861 | 20312 ft | 357 kts | 200° |
| 2026-04-25 18:51 | 28.65248 | -15.22700 | 19883 ft | 355 kts | 201° |
| 2026-04-25 18:51 | 28.64452 | -15.22981 | 19744 ft | 355 kts | 200° |
| 2026-04-25 18:51 | 28.60549 | -15.24355 | 19069 ft | 352 kts | 200° |
| 2026-04-25 18:51 | 28.58216 | -15.25179 | 18669 ft | 350 kts | 200° |
| 2026-04-25 18:52 | 28.55893 | -15.26000 | 18253 ft | 349 kts | 200° |
| 2026-04-25 18:52 | 28.53580 | -15.26817 | 17816 ft | 347 kts | 200° |
| 2026-04-25 18:52 | 28.51283 | -15.27625 | 17421 ft | 344 kts | 200° |
| 2026-04-25 18:52 | 28.49006 | -15.28423 | 17029 ft | 341 kts | 200° |
| 2026-04-25 18:53 | 28.46744 | -15.29215 | 16639 ft | 339 kts | 200° |
| 2026-04-25 18:53 | 28.44498 | -15.30003 | 16256 ft | 337 kts | 200° |
| 2026-04-25 18:53 | 28.42269 | -15.30787 | 15869 ft | 335 kts | 200° |
| 2026-04-25 18:53 | 28.40050 | -15.31567 | 15496 ft | 333 kts | 200° |
| 2026-04-25 18:54 | 28.35647 | -15.33114 | 14739 ft | 330 kts | 200° |
| 2026-04-25 18:54 | 28.33461 | -15.33880 | 14369 ft | 328 kts | 200° |
| 2026-04-25 18:54 | 28.31284 | -15.34644 | 13996 ft | 327 kts | 200° |
| 2026-04-25 18:55 | 28.29159 | -15.35389 | 13790 ft | 321 kts | 199° |
| 2026-04-25 18:55 | 28.27040 | -15.36130 | 13573 ft | 318 kts | 199° |
| 2026-04-25 18:55 | 28.24930 | -15.36865 | 13356 ft | 316 kts | 199° |
| 2026-04-25 18:55 | 28.22831 | -15.37596 | 13144 ft | 315 kts | 199° |
| 2026-04-25 18:56 | 28.20739 | -15.38330 | 12933 ft | 315 kts | 199° |
| 2026-04-25 18:56 | 28.18651 | -15.39066 | 12725 ft | 314 kts | 199° |
| 2026-04-25 18:56 | 28.16569 | -15.39797 | 12517 ft | 313 kts | 199° |
| 2026-04-25 18:56 | 28.14494 | -15.40523 | 12309 ft | 312 kts | 199° |
| 2026-04-25 18:57 | 28.13120 | -15.41004 | 12164 ft | 311 kts | 199° |
| 2026-04-25 18:57 | 28.11015 | -15.41687 | 11947 ft | 312 kts | 192° |
| 2026-04-25 18:57 | 28.08879 | -15.41785 | 11741 ft | 313 kts | 174° |
| 2026-04-25 18:57 | 28.07440 | -15.41427 | 11595 ft | 314 kts | 162° |
| 2026-04-25 18:58 | 28.04943 | -15.39775 | 11317 ft | 317 kts | 137° |
| 2026-04-25 18:58 | 28.01813 | -15.36257 | 10894 ft | 315 kts | 135° |
| 2026-04-25 18:58 | 28.00269 | -15.34517 | 10683 ft | 313 kts | 135° |
| 2026-04-25 18:59 | 27.97212 | -15.31074 | 10240 ft | 309 kts | 135° |
| 2026-04-25 18:59 | 27.94168 | -15.27652 | 9787 ft | 306 kts | 135° |
| 2026-04-25 19:00 | 27.91177 | -15.24297 | 9421 ft | 302 kts | 134° |
| 2026-04-25 19:00 | 27.89680 | -15.22616 | 9224 ft | 302 kts | 135° |
| 2026-04-25 19:01 | 27.86699 | -15.19274 | 8833 ft | 303 kts | 134° |
| 2026-04-25 19:01 | 27.85205 | -15.17600 | 8635 ft | 300 kts | 134° |
| 2026-04-25 19:01 | 27.83732 | -15.15950 | 8438 ft | 299 kts | 134° |
| 2026-04-25 19:01 | 27.82250 | -15.14293 | 8235 ft | 299 kts | 134° |
| 2026-04-25 19:02 | 27.79291 | -15.10984 | 7803 ft | 299 kts | 133° |
| 2026-04-25 19:02 | 27.77829 | -15.09345 | 7594 ft | 293 kts | 133° |
| 2026-04-25 19:02 | 27.76394 | -15.07739 | 7385 ft | 288 kts | 133° |
| 2026-04-25 19:03 | 27.74067 | -15.05143 | 7076 ft | 277 kts | 133° |
| 2026-04-25 19:03 | 27.71938 | -15.03637 | 6908 ft | 270 kts | 166° |
| 2026-04-25 19:03 | 27.70109 | -15.03585 | 6767 ft | 260 kts | 194° |
| 2026-04-25 19:04 | 27.67423 | -15.05858 | 6394 ft | 236 kts | 246° |
| 2026-04-25 19:04 | 27.66710 | -15.07496 | 6204 ft | 231 kts | 248° |
| 2026-04-25 19:05 | 27.65276 | -15.10790 | 5863 ft | 236 kts | 246° |
| 2026-04-25 19:05 | 27.64000 | -15.14165 | 5499 ft | 230 kts | 264° |
| 2026-04-25 19:05 | 27.63939 | -15.15935 | 5341 ft | 224 kts | 282° |
| 2026-04-25 19:06 | 27.64331 | -15.17601 | 5192 ft | 218 kts | 296° |
| 2026-04-25 19:06 | 27.65449 | -15.20743 | 4897 ft | 217 kts | 295° |
| 2026-04-25 19:06 | 27.66010 | -15.22343 | 4745 ft | 216 kts | 296° |
| 2026-04-25 19:07 | 27.67105 | -15.25468 | 4458 ft | 215 kts | 296° |
| 2026-04-25 19:07 | 27.67653 | -15.27034 | 4318 ft | 215 kts | 296° |
| 2026-04-25 19:08 | 27.68751 | -15.30173 | 4035 ft | 211 kts | 296° |
| 2026-04-25 19:08 | 27.69276 | -15.31682 | 3901 ft | 203 kts | 296° |
| 2026-04-25 19:09 | 27.70767 | -15.35963 | 3521 ft | 196 kts | 295° |
| 2026-04-25 19:09 | 27.71105 | -15.36931 | 3434 ft | 196 kts | 295° |
| 2026-04-25 19:09 | 27.72221 | -15.40132 | 3135 ft | 184 kts | 296° |
| 2026-04-25 19:10 | 27.72693 | -15.41463 | 3014 ft | 182 kts | 300° |
| 2026-04-25 19:10 | 27.73376 | -15.42639 | 2928 ft | 181 kts | 316° |
| 2026-04-25 19:10 | 27.74330 | -15.43524 | 2779 ft | 174 kts | 332° |
| 2026-04-25 19:10 | 27.75417 | -15.44116 | 2690 ft | 174 kts | 338° |
| 2026-04-25 19:11 | 27.76528 | -15.44698 | 2611 ft | 178 kts | 337° |
| 2026-04-25 19:11 | 27.77688 | -15.45113 | 2530 ft | 175 kts | 356° |
| 2026-04-25 19:11 | 27.78883 | -15.44976 | 2427 ft | 173 kts | 17° |
| 2026-04-25 19:11 | 27.79993 | -15.44489 | 2322 ft | 171 kts | 20° |
| 2026-04-25 19:12 | 27.81089 | -15.44005 | 2206 ft | 169 kts | 20° |
| 2026-04-25 19:12 | 27.82160 | -15.43530 | 2094 ft | 158 kts | 19° |
| 2026-04-25 19:12 | 27.83170 | -15.43084 | 1990 ft | 152 kts | 21° |
| 2026-04-25 19:12 | 27.84141 | -15.42657 | 1775 ft | 149 kts | 20° |
| 2026-04-25 19:13 | 27.85106 | -15.42233 | 1573 ft | 150 kts | 19° |
| 2026-04-25 19:13 | 27.86089 | -15.41801 | 1367 ft | 152 kts | 18° |
| 2026-04-25 19:13 | 27.87017 | -15.41391 | 1182 ft | 133 kts | 20° |
| 2026-04-25 19:13 | 27.87851 | -15.41020 | 962 ft | 128 kts | 21° |
| 2026-04-25 19:14 | 27.88660 | -15.40660 | 774 ft | 124 kts | 21° |
| 2026-04-25 19:14 | 27.89198 | -15.40431 | 680 ft | 126 kts | 20° |
| 2026-04-25 19:14 | 27.90287 | -15.39935 | 474 ft | 126 kts | 18° |
| 2026-04-25 19:14 | 27.91099 | -15.39588 | 314 ft | 123 kts | 22° |
| 2026-04-25 19:15 | 27.91892 | -15.39233 | 138 ft | 123 kts | 22° |
| 2026-04-25 19:15 | 27.92657 | -15.38894 | 68 ft | 105 kts | 21° |
| 2026-04-25 19:15 | 27.93180 | -15.38660 | 57 ft | 57 kts | 21° |
| 2026-04-25 19:15 | 27.93477 | -15.38532 | 60 ft | 39 kts | 22° |
| 2026-04-25 19:16 | 27.93703 | -15.38433 | 57 ft | 28 kts | 15° |
| 2026-04-25 19:16 | 27.93890 | -15.38431 | 61 ft | 26 kts | 348° |
| 2026-04-25 19:16 | 27.93996 | -15.38450 | 71 ft | 12 kts | 350° |
| 2026-04-25 19:16 | 27.94048 | -15.38511 | 74 ft | 10 kts | 305° |
| 2026-04-25 19:17 | 27.94072 | -15.38567 | 71 ft | 7 kts | 293° |
| 2026-04-25 19:17 | 27.94070 | -15.38611 | 75 ft | 4 kts | 245° |
| 2026-04-25 19:17 | 27.94056 | -15.38629 | 81 ft | 3 kts | 223° |
| 2026-04-25 19:17 | 27.94027 | -15.38646 | 84 ft | 6 kts | 201° |
| 2026-04-25 19:18 | 27.93977 | -15.38667 | 84 ft | 9 kts | 201° |
| 2026-04-25 19:18 | 27.93903 | -15.38700 | 86 ft | 14 kts | 201° |
| 2026-04-25 19:18 | 27.93805 | -15.38744 | 85 ft | 16 kts | 201° |
| 2026-04-25 19:18 | 27.93733 | -15.38776 | 87 ft | 11 kts | 201° |
| 2026-04-25 19:19 | 27.93707 | -15.38808 | 84 ft | 6 kts | 284° |
| 2026-04-25 19:19 | 27.93721 | -15.38844 | 85 ft | 3 kts | 291° |
| 2026-04-25 19:19 | 27.93727 | -15.38862 | 86 ft | 1 kts | 292° |
| 2026-04-25 19:19 | 27.93731 | -15.38872 | 89 ft | 2 kts | 291° |
| 2026-04-25 19:20 | 27.93731 | -15.38874 | 88 ft | 0 kts | 291° |